Time;durP1;ratioP1;P1;durP2;ratioP2;P2;SDS_P1;SDS_P2;PMS_P1;PMS_P2;Temp;Humidity;BMP_temperature;BMP_pressure;BME280_temperature;BME280_humidity;BME280_pressure;Samples;Min_cycle;Max_cycle;Signal;HPM_P1;HPM_P2
2022/04/28 00:00:37;;;;;;;7.67;6.90;;;10.70;75.60;;;;;;4983937;28;20503;-46
2022/04/28 00:03:04;;;;;;;11.73;6.93;;;10.60;75.70;;;;;;4964908;28;20472;-46
2022/04/28 00:05:31;;;;;;;10.10;7.13;;;10.60;75.80;;;;;;4983959;28;20530;-46
2022/04/28 00:07:58;;;;;;;8.27;7.47;;;10.60;75.80;;;;;;4979955;28;20500;-46
2022/04/28 00:10:24;;;;;;;10.83;7.20;;;10.60;75.60;;;;;;4982750;28;20469;-46
2022/04/28 00:12:52;;;;;;;9.03;7.00;;;10.60;75.50;;;;;;4985039;28;20514;-46
2022/04/28 00:15:18;;;;;;;8.43;7.53;;;10.50;75.60;;;;;;4983674;28;20855;-46
2022/04/28 00:17:45;;;;;;;7.17;6.47;;;10.50;75.50;;;;;;4984619;28;20479;-46
2022/04/28 00:20:12;;;;;;;8.20;5.87;;;10.50;75.50;;;;;;4983979;28;20491;-46
2022/04/28 00:22:40;;;;;;;7.27;6.57;;;10.40;75.40;;;;;;4980539;28;20471;-46
2022/04/28 00:25:07;;;;;;;11.20;6.70;;;10.40;75.30;;;;;;4982082;28;20491;-46
2022/04/28 00:27:33;;;;;;;12.10;6.73;;;10.40;75.40;;;;;;4981820;28;20462;-46
2022/04/28 00:30:01;;;;;;;7.47;6.60;;;10.30;75.40;;;;;;4981853;28;20459;-46
2022/04/28 00:32:27;;;;;;;7.17;6.43;;;10.30;75.50;;;;;;4981938;28;20484;-46
2022/04/28 00:34:54;;;;;;;7.63;6.83;;;10.30;75.40;;;;;;4970942;28;20978;-46
2022/04/28 00:37:21;;;;;;;7.77;6.73;;;10.20;75.20;;;;;;4968917;28;20503;-46
2022/04/28 00:39:49;;;;;;;8.60;6.10;;;10.20;75.30;;;;;;4981019;28;20487;-46
2022/04/28 00:42:16;;;;;;;8.23;6.93;;;10.10;75.50;;;;;;4981655;28;20498;-46
2022/04/28 00:44:44;;;;;;;8.23;7.43;;;10.10;75.70;;;;;;4964514;28;20464;-46
2022/04/28 00:47:11;;;;;;;7.40;5.90;;;10.10;75.70;;;;;;4982922;28;20528;-46
2022/04/28 00:52:24;;;;;;;7.90;7.10;;;10.00;75.90;;;;;;4980237;28;20588;-46
2022/04/28 00:54:53;;;;;;;8.17;6.63;;;10.00;76.10;;;;;;4980207;28;20494;-46
2022/04/28 00:57:20;;;;;;;6.93;6.23;;;9.90;76.30;;;;;;4978398;28;20848;-46
2022/04/28 00:59:48;;;;;;;8.33;7.07;;;9.90;76.50;;;;;;4981876;28;20494;-46
2022/04/28 01:02:19;;;;;;;8.60;6.73;;;9.90;76.60;;;;;;4980757;28;21417;-46
2022/04/28 01:04:47;;;;;;;7.20;6.50;;;9.90;76.70;;;;;;4979857;28;20465;-46
2022/04/28 01:07:15;;;;;;;8.93;8.03;;;9.90;76.80;;;;;;4983550;28;20503;-47
2022/04/28 01:09:42;;;;;;;8.87;6.47;;;9.90;76.90;;;;;;4978983;28;20841;-46
2022/04/28 01:12:14;;;;;;;9.00;6.77;;;9.90;77.00;;;;;;4978582;28;20467;-46
2022/04/28 01:14:45;;;;;;;6.97;6.30;;;9.90;76.90;;;;;;4981978;28;20578;-46
2022/04/28 01:17:12;;;;;;;13.07;7.50;;;9.80;77.00;;;;;;4975132;28;20551;-46
2022/04/28 01:19:40;;;;;;;6.77;6.17;;;9.80;77.10;;;;;;4981675;28;21046;-46
2022/04/28 01:22:08;;;;;;;10.17;6.80;;;9.80;77.10;;;;;;4962444;28;20574;-46
2022/04/28 01:24:36;;;;;;;9.67;6.93;;;9.80;77.20;;;;;;4965918;28;21040;-46
2022/04/28 01:27:05;;;;;;;8.17;7.33;;;9.80;77.40;;;;;;4967721;28;20553;-46
2022/04/28 01:29:33;;;;;;;8.20;7.40;;;9.80;77.40;;;;;;4980265;28;20683;-46
2022/04/28 01:32:01;;;;;;;7.30;6.47;;;9.80;77.20;;;;;;4984068;28;20691;-46
2022/04/28 01:34:28;;;;;;;8.50;7.40;;;9.70;77.20;;;;;;4980183;28;20882;-46
2022/04/28 01:36:55;;;;;;;7.37;6.67;;;9.70;77.30;;;;;;4968482;28;20468;-46
2022/04/28 01:39:22;;;;;;;7.90;7.10;;;9.70;77.40;;;;;;4961093;28;20497;-46
2022/04/28 01:41:50;;;;;;;7.63;6.80;;;9.70;77.50;;;;;;4980956;28;20495;-46
2022/04/28 01:44:17;;;;;;;8.07;6.73;;;9.60;77.60;;;;;;4965095;28;20865;-46
2022/04/28 01:46:44;;;;;;;6.77;6.07;;;9.60;77.60;;;;;;4983039;28;20469;-46
2022/04/28 01:49:12;;;;;;;8.43;7.57;;;9.60;77.60;;;;;;4982200;28;20457;-46
2022/04/28 01:57:10;;;;;;;7.97;6.30;;;9.60;77.70;;;;;;4984955;28;20470;-46
2022/04/28 01:59:37;;;;;;;9.20;6.17;;;9.50;77.80;;;;;;4979806;28;20534;-46
2022/04/28 02:02:04;;;;;;;6.77;6.07;;;9.50;77.70;;;;;;4983693;28;21311;-46
2022/04/28 02:04:31;;;;;;;6.67;6.07;;;9.50;77.70;;;;;;4982849;28;20984;-47
2022/04/28 02:06:58;;;;;;;6.97;6.37;;;9.50;77.80;;;;;;4985870;28;20539;-46
2022/04/28 02:09:25;;;;;;;9.03;7.20;;;9.50;77.90;;;;;;4983280;28;20452;-45
2022/04/28 02:11:52;;;;;;;7.13;6.27;;;9.50;77.90;;;;;;4984415;28;20989;-46
2022/04/28 02:14:18;;;;;;;7.87;7.03;;;9.40;77.80;;;;;;4981431;28;20479;-46
2022/04/28 02:16:45;;;;;;;8.03;7.10;;;9.40;77.80;;;;;;4982209;28;20475;-46
2022/04/28 02:19:12;;;;;;;7.90;7.10;;;9.40;77.80;;;;;;4983625;28;20468;-44
2022/04/28 02:21:39;;;;;;;10.63;7.80;;;9.40;77.70;;;;;;4978747;28;21000;-44
2022/04/28 02:24:06;;;;;;;8.20;7.27;;;9.30;77.50;;;;;;4984078;28;20466;-45
2022/04/28 02:26:33;;;;;;;7.90;6.57;;;9.30;77.30;;;;;;4965622;28;20468;-44
2022/04/28 02:29:00;;;;;;;7.27;6.57;;;9.30;77.10;;;;;;4985190;28;20866;-44
2022/04/28 02:31:27;;;;;;;6.60;6.00;;;9.30;77.00;;;;;;4985369;28;20493;-45
2022/04/28 02:33:53;;;;;;;6.87;6.17;;;9.20;76.90;;;;;;4984495;28;20479;-45
2022/04/28 02:36:20;;;;;;;7.80;6.70;;;9.10;77.00;;;;;;4982910;28;20483;-44
2022/04/28 02:38:47;;;;;;;7.93;7.10;;;9.10;77.10;;;;;;4980140;28;20463;-44
2022/04/28 02:41:19;;;;;;;8.33;6.30;;;9.10;77.30;;;;;;4984842;28;20521;-45
2022/04/28 02:43:47;;;;;;;11.87;7.23;;;9.10;77.40;;;;;;4983723;28;20958;-44
2022/04/28 02:46:14;;;;;;;8.87;7.17;;;9.00;77.70;;;;;;4983732;28;20456;-44
2022/04/28 02:48:41;;;;;;;7.10;6.33;;;9.00;77.80;;;;;;4986755;28;20467;-44
2022/04/28 02:51:08;;;;;;;7.90;6.37;;;9.00;77.80;;;;;;4986640;28;20536;-44
2022/04/28 02:53:35;;;;;;;6.13;5.53;;;9.00;77.90;;;;;;4986622;28;20459;-44
2022/04/28 02:56:02;;;;;;;6.77;6.07;;;9.00;77.90;;;;;;4969005;28;20464;-44
2022/04/28 02:58:29;;;;;;;7.80;7.00;;;9.00;77.90;;;;;;4987478;28;20476;-44
2022/04/28 03:00:56;;;;;;;7.30;6.60;;;8.90;77.90;;;;;;4987205;28;20496;-44
2022/04/28 03:03:23;;;;;;;8.43;6.40;;;8.90;78.00;;;;;;4981842;28;21002;-44
2022/04/28 03:11:20;;;;;;;8.90;5.63;;;8.90;78.10;;;;;;4980598;28;20467;-45
2022/04/28 03:13:47;;;;;;;8.07;7.30;;;8.90;78.20;;;;;;4967181;28;20534;-44
2022/04/28 03:16:14;;;;;;;7.27;6.30;;;8.90;78.20;;;;;;4953130;28;20476;-44
2022/04/28 03:18:41;;;;;;;6.80;6.10;;;8.90;78.20;;;;;;4981907;28;20456;-44
2022/04/28 03:21:08;;;;;;;7.43;6.83;;;8.90;78.20;;;;;;4974012;28;20528;-44
2022/04/28 03:23:35;;;;;;;6.77;6.20;;;8.80;78.30;;;;;;4982563;28;20456;-44
2022/04/28 03:26:03;;;;;;;7.40;6.70;;;8.80;78.40;;;;;;4983177;28;20543;-44
2022/04/28 03:28:34;;;;;;;8.20;6.90;;;8.80;78.50;;;;;;4985430;28;20570;-44
2022/04/28 03:31:02;;;;;;;8.33;6.10;;;8.70;78.30;;;;;;4987305;28;21087;-44
2022/04/28 03:33:29;;;;;;;7.33;6.63;;;8.70;78.40;;;;;;4981077;28;20463;-44
2022/04/28 03:35:56;;;;;;;8.50;6.40;;;8.70;78.40;;;;;;4982615;28;20472;-44
2022/04/28 03:38:23;;;;;;;7.30;6.40;;;8.70;78.40;;;;;;4983251;28;20803;-44
2022/04/28 03:40:50;;;;;;;8.93;7.10;;;8.70;78.30;;;;;;4969834;28;20492;-44
2022/04/28 03:43:17;;;;;;;8.37;6.60;;;8.60;78.50;;;;;;4984557;28;20455;-44
2022/04/28 03:45:44;;;;;;;9.33;6.87;;;8.60;78.60;;;;;;4983274;28;20941;-44
2022/04/28 03:48:11;;;;;;;6.80;6.10;;;8.60;78.50;;;;;;4986421;28;20818;-44
2022/04/28 03:50:38;;;;;;;6.67;6.10;;;8.60;78.50;;;;;;4961989;28;20479;-44
2022/04/28 03:53:05;;;;;;;7.70;6.20;;;8.60;78.60;;;;;;4982673;28;20912;-44
2022/04/28 03:55:32;;;;;;;7.67;6.97;;;8.60;78.70;;;;;;4966505;28;20480;-44
2022/04/28 03:57:59;;;;;;;6.80;6.13;;;8.50;78.70;;;;;;4986172;28;20472;-44
2022/04/28 04:00:26;;;;;;;10.40;6.80;;;8.50;78.70;;;;;;4980133;28;20496;-44
2022/04/28 04:02:52;;;;;;;6.37;5.77;;;8.50;78.80;;;;;;4980524;28;20449;-45
2022/04/28 04:05:19;;;;;;;7.67;6.87;;;8.50;78.80;;;;;;4979884;28;20476;-44
2022/04/28 04:07:46;;;;;;;7.70;6.90;;;8.50;78.80;;;;;;4970740;28;20540;-45
2022/04/28 04:10:13;;;;;;;8.13;6.33;;;8.40;78.80;;;;;;4983380;28;20474;-44
2022/04/28 04:12:40;;;;;;;6.73;6.07;;;8.40;78.90;;;;;;4968843;28;21038;-44
2022/04/28 04:15:08;;;;;;;7.83;6.83;;;8.40;78.90;;;;;;4983382;28;20957;-44
2022/04/28 04:17:43;;;;;;;6.77;6.07;;;8.40;79.00;;;;;;4982799;28;20975;-44
2022/04/28 04:20:10;;;;;;;7.37;6.57;;;8.40;79.10;;;;;;4979111;28;20511;-44
2022/04/28 04:22:37;;;;;;;8.80;6.73;;;8.40;79.10;;;;;;4981845;28;20519;-44
2022/04/28 04:25:05;;;;;;;7.83;6.33;;;8.40;79.00;;;;;;4981481;28;20460;-44
2022/04/28 04:27:32;;;;;;;7.00;6.37;;;8.40;79.20;;;;;;4981214;28;20482;-45
2022/04/28 04:32:17;;;;;;;7.53;6.67;;;8.40;79.20;;;;;;4983186;28;20511;-45
2022/04/28 04:32:49;;;;;;;7.30;5.97;;;8.40;79.20;;;;;;4981681;28;20833;-44
2022/04/28 04:35:16;;;;;;;6.60;6.00;;;8.40;79.20;;;;;;4980974;28;20479;-43
2022/04/28 04:37:43;;;;;;;7.30;6.40;;;8.40;79.40;;;;;;4979071;28;20491;-43
2022/04/28 04:40:11;;;;;;;6.90;6.03;;;8.40;79.20;;;;;;4982405;28;20496;-44
2022/04/28 04:42:38;;;;;;;9.37;6.90;;;8.40;79.40;;;;;;4980408;28;20465;-44
2022/04/28 04:45:09;;;;;;;8.93;6.80;;;8.40;79.40;;;;;;4982747;28;20463;-45
2022/04/28 04:47:36;;;;;;;10.30;6.90;;;8.40;79.60;;;;;;4981167;28;20839;-45
2022/04/28 04:50:04;;;;;;;8.00;6.70;;;8.40;79.60;;;;;;4968000;28;20532;-44
2022/04/28 04:52:31;;;;;;;11.27;7.33;;;8.40;79.70;;;;;;4981439;28;21290;-45
2022/04/28 04:54:58;;;;;;;10.00;6.50;;;8.40;79.70;;;;;;4983815;28;20941;-44
2022/04/28 04:57:25;;;;;;;12.80;7.93;;;8.40;79.80;;;;;;4980721;28;21129;-45
2022/04/28 04:59:52;;;;;;;9.50;6.33;;;8.40;79.80;;;;;;4984834;28;20475;-45
2022/04/28 05:02:19;;;;;;;8.50;7.57;;;8.40;79.90;;;;;;4980177;28;20476;-45
2022/04/28 05:04:46;;;;;;;7.80;7.13;;;8.40;79.80;;;;;;4981433;28;20551;-45
2022/04/28 05:07:13;;;;;;;7.93;7.23;;;8.40;79.90;;;;;;4979901;28;20463;-45
2022/04/28 05:09:40;;;;;;;8.57;7.70;;;8.50;79.90;;;;;;4980106;28;20936;-45
2022/04/28 05:12:07;;;;;;;8.27;7.47;;;8.50;79.90;;;;;;4966147;28;20468;-45
2022/04/28 05:14:38;;;;;;;10.93;8.27;;;8.50;79.90;;;;;;4964537;28;20471;-45
2022/04/28 05:17:06;;;;;;;8.67;7.67;;;8.50;80.00;;;;;;4972189;28;20477;-45
2022/04/28 05:19:33;;;;;;;9.73;6.43;;;8.60;80.00;;;;;;4978287;28;20582;-45
2022/04/28 05:22:00;;;;;;;9.40;7.37;;;8.60;80.10;;;;;;4986685;28;20538;-45
2022/04/28 05:24:27;;;;;;;9.77;8.10;;;8.60;80.30;;;;;;4984123;28;20474;-45
2022/04/28 05:26:54;;;;;;;8.03;7.27;;;8.70;80.40;;;;;;4983204;28;20658;-45
2022/04/28 05:29:20;;;;;;;10.90;7.90;;;8.70;80.40;;;;;;4982941;28;20836;-45
2022/04/28 05:31:47;;;;;;;7.77;6.97;;;8.70;80.60;;;;;;4983219;28;20474;-45
2022/04/28 05:34:14;;;;;;;8.73;7.93;;;8.80;80.60;;;;;;4987483;28;20468;-45
2022/04/28 05:36:43;;;;;;;8.60;7.23;;;8.80;80.70;;;;;;4984913;28;20563;-45
2022/04/28 05:39:09;;;;;;;11.97;8.20;;;8.90;80.80;;;;;;4985466;28;20476;-45
2022/04/28 05:41:36;;;;;;;10.20;8.70;;;8.90;80.90;;;;;;4975981;28;20487;-45
2022/04/28 05:46:53;;;;;;;12.80;8.97;;;9.20;80.90;;;;;;4984808;28;20534;-45
2022/04/28 05:49:21;;;;;;;11.17;8.83;;;9.30;80.70;;;;;;4984473;28;20999;-45
2022/04/28 05:51:49;;;;;;;9.97;8.97;;;9.40;80.40;;;;;;4973838;28;20475;-45
2022/04/28 05:54:16;;;;;;;12.47;9.30;;;9.50;80.30;;;;;;4974533;28;20631;-45
2022/04/28 05:56:43;;;;;;;12.07;10.73;;;9.60;80.20;;;;;;4981757;28;21010;-45
2022/04/28 05:59:13;;;;;;;9.57;8.67;;;9.70;80.10;;;;;;4987966;28;20488;-45
2022/04/28 06:01:40;;;;;;;10.67;8.40;;;9.70;80.30;;;;;;4984986;28;20496;-45
2022/04/28 06:04:07;;;;;;;11.37;10.00;;;9.80;80.00;;;;;;4984771;28;20510;-45
2022/04/28 06:06:39;;;;;;;10.27;9.00;;;9.90;79.80;;;;;;4981656;28;20938;-45
2022/04/28 06:09:05;;;;;;;12.13;9.87;;;10.00;79.80;;;;;;4973372;28;20542;-45
2022/04/28 06:11:32;;;;;;;10.03;9.10;;;10.00;79.80;;;;;;4985648;28;20445;-45
2022/04/28 06:13:59;;;;;;;10.43;8.87;;;10.10;79.80;;;;;;4983576;28;20504;-45
2022/04/28 06:16:26;;;;;;;14.63;10.10;;;10.20;79.80;;;;;;4982016;28;20460;-45
2022/04/28 06:18:53;;;;;;;13.13;9.30;;;10.20;79.80;;;;;;4970591;28;20547;-45
2022/04/28 06:21:19;;;;;;;14.03;10.13;;;10.40;79.80;;;;;;4984187;28;20496;-45
2022/04/28 06:23:46;;;;;;;10.73;8.63;;;10.50;79.50;;;;;;4983079;28;20548;-45
2022/04/28 06:26:13;;;;;;;14.30;10.30;;;10.60;79.20;;;;;;4985780;28;20463;-45
2022/04/28 06:28:41;;;;;;;9.97;8.97;;;10.70;79.00;;;;;;4984819;28;20457;-45
2022/04/28 06:31:08;;;;;;;11.77;10.23;;;10.80;78.80;;;;;;4987315;28;20572;-45
2022/04/28 06:33:35;;;;;;;15.10;10.50;;;10.90;78.30;;;;;;4983023;28;20505;-45
2022/04/28 06:36:01;;;;;;;10.30;9.27;;;11.10;77.40;;;;;;4984581;28;20597;-45
2022/04/28 06:38:28;;;;;;;12.23;10.20;;;11.20;77.00;;;;;;4982081;28;21026;-45
2022/04/28 06:40:55;;;;;;;10.83;9.73;;;11.40;76.50;;;;;;4981724;28;20500;-45
2022/04/28 06:43:22;;;;;;;12.17;10.07;;;11.40;76.40;;;;;;4983965;28;20469;-45
2022/04/28 06:48:34;;;;;;;11.47;10.20;;;11.70;75.70;;;;;;4986335;28;20460;-45
2022/04/28 06:51:01;;;;;;;15.37;10.20;;;11.80;75.20;;;;;;4980684;28;20835;-45
2022/04/28 06:53:27;;;;;;;12.00;10.03;;;11.90;75.10;;;;;;4983268;28;20969;-45
2022/04/28 06:55:54;;;;;;;11.27;10.00;;;12.00;74.90;;;;;;4983713;28;20452;-45
2022/04/28 06:58:23;;;;;;;14.13;10.10;;;12.10;74.70;;;;;;4981797;28;20463;-45
2022/04/28 07:00:50;;;;;;;12.73;10.00;;;12.30;74.30;;;;;;4982526;28;20485;-45
2022/04/28 07:03:18;;;;;;;11.73;9.57;;;12.40;74.10;;;;;;4984702;28;20555;-45
2022/04/28 07:05:45;;;;;;;11.40;9.70;;;12.50;73.30;;;;;;4981738;28;20469;-45
2022/04/28 07:08:11;;;;;;;14.57;10.90;;;12.70;72.40;;;;;;4986787;28;21071;-45
2022/04/28 07:10:40;;;;;;;12.67;10.53;;;12.90;71.60;;;;;;4983042;28;20478;-45
2022/04/28 07:13:07;;;;;;;11.73;10.47;;;13.10;71.30;;;;;;4985472;28;20451;-45
2022/04/28 07:15:36;;;;;;;12.37;10.67;;;13.20;70.70;;;;;;4982247;28;20451;-45
2022/04/28 07:18:05;;;;;;;11.80;10.40;;;13.40;70.30;;;;;;4982580;28;20555;-45
2022/04/28 07:20:36;;;;;;;11.20;9.80;;;13.60;70.40;;;;;;4971302;28;20445;-45
2022/04/28 07:23:02;;;;;;;18.90;11.30;;;13.80;70.30;;;;;;4982149;28;20445;-45
2022/04/28 07:25:30;;;;;;;11.40;10.30;;;13.90;69.30;;;;;;4980795;28;20462;-43
2022/04/28 07:27:58;;;;;;;15.67;12.20;;;14.10;68.30;;;;;;4982371;28;20460;-43
2022/04/28 07:30:26;;;;;;;13.17;10.17;;;14.30;67.90;;;;;;4980894;28;20456;-44
2022/04/28 07:32:53;;;;;;;17.70;11.57;;;14.50;67.40;;;;;;4962304;28;20462;-44
2022/04/28 07:35:23;;;;;;;14.83;10.93;;;14.70;66.20;;;;;;4980661;28;20572;-44
2022/04/28 07:37:51;;;;;;;11.97;10.47;;;14.90;66.00;;;;;;4980559;28;20468;-44
2022/04/28 07:40:25;;;;;;;12.47;11.07;;;15.10;65.20;;;;;;4969248;28;20460;-43
2022/04/28 07:42:51;;;;;;;13.20;11.27;;;15.30;63.70;;;;;;4979603;28;20512;-44
2022/04/28 07:45:18;;;;;;;13.57;10.80;;;15.50;64.20;;;;;;4983457;28;20531;-45
2022/04/28 07:47:45;;;;;;;12.07;10.87;;;15.70;63.70;;;;;;4983061;28;20875;-45
2022/04/28 07:50:12;;;;;;;12.00;10.20;;;15.90;62.70;;;;;;4978622;28;20453;-44
2022/04/28 07:52:39;;;;;;;15.00;10.73;;;16.10;62.60;;;;;;4983040;28;20813;-44
2022/04/28 07:55:07;;;;;;;11.10;9.90;;;16.30;62.90;;;;;;4982754;28;20454;-44
2022/04/28 07:57:37;;;;;;;11.33;10.13;;;16.50;62.30;;;;;;4981995;28;20475;-44
2022/04/28 08:00:06;;;;;;;12.00;10.80;;;16.60;60.50;;;;;;4966751;28;20555;-44
2022/04/28 08:02:33;;;;;;;11.93;10.60;;;16.80;59.80;;;;;;4980956;28;20768;-44
2022/04/28 08:05:00;;;;;;;12.67;11.47;;;16.90;59.40;;;;;;4963602;28;20457;-44
2022/04/28 08:07:28;;;;;;;11.40;10.30;;;17.00;58.70;;;;;;4980829;28;20473;-44
2022/04/28 08:09:54;;;;;;;14.67;10.80;;;17.20;58.10;;;;;;4983700;28;20455;-44
2022/04/28 08:12:21;;;;;;;14.10;10.70;;;17.30;58.30;;;;;;4978686;28;20477;-44
2022/04/28 08:15:08;;;;;;;11.80;10.10;;;17.50;58.50;;;;;;4981284;28;20943;-44
2022/04/28 08:17:35;;;;;;;15.03;11.80;;;17.70;57.60;;;;;;4982418;28;20910;-44
2022/04/28 08:20:02;;;;;;;11.50;10.27;;;17.80;57.30;;;;;;4965678;28;20570;-44
2022/04/28 08:22:29;;;;;;;11.70;10.50;;;18.00;56.80;;;;;;4981957;28;20499;-44
2022/04/28 08:24:56;;;;;;;13.83;10.57;;;18.10;56.50;;;;;;4978675;28;21028;-44
2022/04/28 08:27:25;;;;;;;13.70;12.40;;;18.30;56.60;;;;;;4979679;28;20462;-44
2022/04/28 08:29:52;;;;;;;12.80;10.33;;;18.50;56.90;;;;;;4983754;28;20839;-44
2022/04/28 08:32:19;;;;;;;12.70;10.80;;;18.70;56.30;;;;;;4979318;28;21334;-44
2022/04/28 08:34:45;;;;;;;15.70;11.70;;;18.90;56.40;;;;;;4977111;28;20462;-44
2022/04/28 08:37:12;;;;;;;14.97;11.23;;;19.00;55.50;;;;;;4981509;28;20818;-44
2022/04/28 08:39:39;;;;;;;12.97;11.50;;;19.20;53.80;;;;;;4984084;28;20570;-44
2022/04/28 08:42:08;;;;;;;13.50;11.30;;;19.30;53.50;;;;;;4978396;28;20492;-44
2022/04/28 08:44:35;;;;;;;12.60;10.50;;;19.40;53.70;;;;;;4983348;28;20445;-44
2022/04/28 08:47:03;;;;;;;14.03;11.37;;;19.60;54.00;;;;;;4982331;28;20496;-44
2022/04/28 08:49:32;;;;;;;12.23;10.80;;;19.70;51.30;;;;;;4981732;28;20526;-44
2022/04/28 08:51:59;;;;;;;13.43;12.03;;;19.90;51.00;;;;;;4961527;28;20512;-44
2022/04/28 08:54:28;;;;;;;12.77;11.17;;;20.20;50.80;;;;;;4984346;28;20465;-44
2022/04/28 08:56:57;;;;;;;13.23;11.70;;;20.40;50.80;;;;;;4988160;28;20505;-44
2022/04/28 08:59:25;;;;;;;11.73;9.40;;;20.60;50.80;;;;;;4984399;28;20988;-44
2022/04/28 09:01:52;;;;;;;15.50;10.47;;;20.70;48.30;;;;;;4984505;28;20498;-44
2022/04/28 09:04:19;;;;;;;11.63;10.00;;;20.90;48.60;;;;;;4986517;28;20547;-44
2022/04/28 09:06:51;;;;;;;12.40;10.67;;;21.10;48.80;;;;;;4982579;28;20548;-44
2022/04/28 09:09:19;;;;;;;10.70;8.70;;;21.30;48.80;;;;;;4983904;28;20445;-44
2022/04/28 09:11:46;;;;;;;10.33;9.27;;;21.50;48.50;;;;;;4982746;28;20457;-44
2022/04/28 09:14:15;;;;;;;7.53;6.83;;;21.70;48.40;;;;;;4985867;28;21005;-44
2022/04/28 09:16:45;;;;;;;9.93;8.23;;;22.00;47.00;;;;;;4982775;28;20469;-44
2022/04/28 09:19:23;;;;;;;10.67;8.50;;;22.20;46.40;;;;;;4982965;28;20868;-45
2022/04/28 09:21:52;;;;;;;9.20;8.00;;;22.40;45.10;;;;;;4984332;28;20477;-45
2022/04/28 09:24:23;;;;;;;9.00;8.10;;;22.70;44.80;;;;;;4980989;28;20508;-45
2022/04/28 09:26:54;;;;;;;9.20;7.17;;;22.90;44.30;;;;;;4981693;28;20467;-44
2022/04/28 09:29:22;;;;;;;9.10;6.80;;;23.20;43.40;;;;;;4985726;28;20460;-44
2022/04/28 09:31:51;;;;;;;8.90;8.00;;;23.50;43.60;;;;;;4964277;28;20468;-44
2022/04/28 09:34:49;;;;;;;8.80;6.80;;;23.70;43.40;;;;;;4985151;28;20448;-44
2022/04/28 09:37:21;;;;;;;8.73;7.83;;;24.10;42.20;;;;;;4987131;28;20479;-44
2022/04/28 09:42:43;;;;;;;6.20;5.60;;;24.40;40.50;;;;;;4984530;28;20547;-45
2022/04/28 09:45:13;;;;;;;6.70;5.27;;;24.60;39.20;;;;;;4985754;28;20461;-45
2022/04/28 09:47:39;;;;;;;5.27;4.77;;;24.80;39.40;;;;;;4980928;28;20833;-45
2022/04/28 09:50:17;;;;;;;5.47;4.90;;;25.00;37.90;;;;;;4983838;28;20464;-45
2022/04/28 09:52:44;;;;;;;7.00;4.57;;;25.30;37.90;;;;;;4987122;28;20463;-45
2022/04/28 09:55:13;;;;;;;6.33;4.30;;;25.50;37.50;;;;;;4984235;28;20533;-45
2022/04/28 09:57:41;;;;;;;5.10;4.57;;;25.80;37.80;;;;;;4979879;28;20499;-45
2022/04/28 10:00:08;;;;;;;5.90;3.83;;;25.90;35.80;;;;;;4968046;28;20468;-45
2022/04/28 10:02:36;;;;;;;5.10;4.60;;;26.10;34.80;;;;;;4981007;28;21047;-45
2022/04/28 10:05:05;;;;;;;5.20;3.90;;;26.20;34.70;;;;;;4983749;28;20820;-45
2022/04/28 10:07:36;;;;;;;4.50;4.10;;;26.30;34.50;;;;;;4985209;28;20205;-45
2022/04/28 10:10:03;;;;;;;3.50;3.07;;;26.40;34.70;;;;;;4965165;28;21130;-45
2022/04/28 10:12:30;;;;;;;5.07;3.70;;;26.60;35.50;;;;;;4985296;28;20473;-45
2022/04/28 10:14:59;;;;;;;5.50;4.60;;;26.70;34.40;;;;;;4982555;28;20456;-45
2022/04/28 10:17:32;;;;;;;3.97;3.67;;;26.70;33.20;;;;;;4978379;28;20475;-45
2022/04/28 10:20:05;;;;;;;5.00;3.70;;;26.60;33.20;;;;;;4984706;28;20539;-45
2022/04/28 10:22:52;;;;;;;5.60;4.10;;;26.60;32.70;;;;;;4987071;28;20492;-45
2022/04/28 10:33:47;;;;;;;6.67;6.13;;;26.10;34.40;;;;;;4985346;28;20511;-45
2022/04/28 10:36:18;;;;;;;16.00;12.70;;;25.80;34.20;;;;;;4984134;28;21074;-45
2022/04/28 10:39:08;;;;;;;11.00;8.60;;;25.80;33.90;;;;;;4981190;28;20491;-45
2022/04/28 10:41:35;;;;;;;17.97;15.97;;;25.80;34.30;;;;;;4986941;28;20476;-45
2022/04/28 10:44:18;;;;;;;11.87;10.57;;;25.90;33.00;;;;;;4983978;28;21020;-45
2022/04/28 10:46:59;;;;;;;3.97;3.50;;;25.90;32.70;;;;;;4970982;28;20467;-45
2022/04/28 10:49:35;;;;;;;3.53;3.23;;;26.00;32.60;;;;;;4981875;28;20464;-46
2022/04/28 10:52:04;;;;;;;6.90;3.60;;;26.00;32.10;;;;;;4981603;28;20469;-46
2022/04/28 10:54:46;;;;;;;3.83;3.40;;;26.00;30.40;;;;;;4983805;28;20835;-46
2022/04/28 10:57:13;;;;;;;4.00;3.60;;;26.00;31.70;;;;;;4984215;28;20488;-45
2022/04/28 10:59:40;;;;;;;5.63;3.83;;;25.80;31.30;;;;;;4984305;28;20465;-46
2022/04/28 11:02:11;;;;;;;3.63;3.30;;;25.70;31.80;;;;;;4980483;28;20494;-45
2022/04/28 11:04:40;;;;;;;4.47;3.33;;;25.70;33.20;;;;;;4982176;28;21343;-45
2022/04/28 11:07:24;;;;;;;4.30;3.60;;;25.60;32.30;;;;;;4981529;28;20476;-45
2022/04/28 11:09:55;;;;;;;4.17;3.80;;;25.40;31.80;;;;;;4985294;28;20463;-45
2022/04/28 11:12:25;;;;;;;4.77;4.10;;;25.30;33.90;;;;;;4968902;28;20468;-45
2022/04/28 11:15:05;;;;;;;4.17;3.50;;;25.20;33.50;;;;;;4982102;28;20471;-46
2022/04/28 11:17:36;;;;;;;5.90;4.03;;;25.00;31.90;;;;;;4960773;28;20471;-46
2022/04/28 11:20:07;;;;;;;4.70;4.10;;;24.80;32.70;;;;;;4982543;28;21056;-46
2022/04/28 11:22:59;;;;;;;6.40;4.60;;;24.60;33.80;;;;;;4979746;28;20496;-46
2022/04/28 11:25:26;;;;;;;5.80;4.10;;;24.30;33.90;;;;;;4979129;28;20463;-45
2022/04/28 11:27:55;;;;;;;4.93;4.37;;;24.10;35.30;;;;;;4978420;28;20652;-46
2022/04/28 11:30:25;;;;;;;6.03;4.57;;;23.90;34.90;;;;;;4982571;28;20543;-46
2022/04/28 11:32:57;;;;;;;3.90;3.50;;;23.80;34.90;;;;;;4983168;28;20892;-45
2022/04/28 11:35:36;;;;;;;4.60;4.17;;;23.80;36.00;;;;;;4981706;28;20473;-45
2022/04/28 11:38:03;;;;;;;5.00;4.13;;;23.70;35.80;;;;;;4982468;28;20456;-45
2022/04/28 11:40:35;;;;;;;5.20;4.70;;;23.50;35.50;;;;;;4980520;28;20473;-45
2022/04/28 11:43:03;;;;;;;5.20;4.77;;;23.20;36.30;;;;;;4962432;28;20481;-44
2022/04/28 11:45:32;;;;;;;5.93;5.43;;;23.00;37.10;;;;;;4983388;28;20465;-45
2022/04/28 11:48:00;;;;;;;6.70;5.23;;;22.80;37.00;;;;;;4982441;28;20468;-45
2022/04/28 11:50:32;;;;;;;5.60;4.10;;;22.60;37.20;;;;;;4980876;28;20444;-45
2022/04/28 11:53:02;;;;;;;4.77;4.30;;;22.50;37.80;;;;;;4977909;28;20500;-44
2022/04/28 11:55:30;;;;;;;4.60;4.20;;;22.40;37.30;;;;;;4981758;28;20466;-45
2022/04/28 11:57:58;;;;;;;4.90;4.37;;;22.30;37.60;;;;;;4983484;28;20473;-44
2022/04/28 12:00:25;;;;;;;5.37;4.87;;;22.40;38.80;;;;;;4980486;28;20465;-44
2022/04/28 12:02:54;;;;;;;7.57;4.60;;;22.40;39.00;;;;;;4979819;28;20501;-44
2022/04/28 12:05:24;;;;;;;7.10;4.07;;;22.40;39.70;;;;;;4982822;28;20984;-45
2022/04/28 12:07:53;;;;;;;11.97;5.17;;;22.30;39.00;;;;;;4980551;28;20453;-45
2022/04/28 12:16:06;;;;;;;5.60;5.10;;;22.10;40.60;;;;;;4983069;28;20726;-44
2022/04/28 12:21:24;;;;;;;6.00;4.30;;;22.20;38.90;;;;;;4977645;28;20962;-45
2022/04/28 12:23:55;;;;;;;4.73;4.23;;;22.30;37.80;;;;;;4977599;28;20580;-45
2022/04/28 12:26:26;;;;;;;5.73;4.47;;;22.50;37.20;;;;;;4981999;28;20491;-45
2022/04/28 12:28:54;;;;;;;5.60;4.50;;;22.50;37.00;;;;;;4977804;28;20458;-45
2022/04/28 12:31:31;;;;;;;9.40;5.63;;;22.60;37.90;;;;;;4981221;28;20543;-45
2022/04/28 12:34:20;;;;;;;4.93;4.53;;;22.70;38.50;;;;;;4978021;28;20876;-45
2022/04/28 12:36:56;;;;;;;5.83;4.27;;;22.80;37.60;;;;;;4977621;28;20950;-45
2022/04/28 12:39:29;;;;;;;5.00;4.50;;;22.90;39.20;;;;;;4977830;28;20457;-45
2022/04/28 12:41:56;;;;;;;5.50;5.00;;;22.70;37.60;;;;;;4979579;28;20895;-45
2022/04/28 12:44:23;;;;;;;6.90;5.10;;;22.50;37.20;;;;;;4980153;28;20991;-46
2022/04/28 12:46:55;;;;;;;4.83;4.43;;;22.40;37.90;;;;;;4978552;28;20468;-45
2022/04/28 12:49:23;;;;;;;5.40;4.90;;;22.20;38.00;;;;;;4981249;28;20438;-45
2022/04/28 12:51:55;;;;;;;4.60;4.20;;;22.10;37.80;;;;;;4961016;28;20456;-45
2022/04/28 12:54:35;;;;;;;12.57;5.27;;;22.00;38.20;;;;;;4977055;28;20491;-45
2022/04/28 12:57:04;;;;;;;4.30;4.00;;;21.90;38.10;;;;;;4969074;28;21971;-45
2022/04/28 12:59:36;;;;;;;5.23;4.43;;;22.00;38.20;;;;;;4980379;28;20469;-45
2022/04/28 13:02:05;;;;;;;5.77;4.23;;;22.00;38.10;;;;;;4976873;28;20551;-45
2022/04/28 13:04:37;;;;;;;3.97;3.60;;;22.00;37.80;;;;;;4977891;28;20466;-45
2022/04/28 13:07:05;;;;;;;4.50;4.10;;;22.00;38.40;;;;;;4978251;28;20495;-45
2022/04/28 13:09:32;;;;;;;5.57;4.80;;;22.10;39.10;;;;;;4980638;28;20467;-45
2022/04/28 13:12:00;;;;;;;4.67;4.20;;;22.10;37.30;;;;;;4968525;28;20473;-45
2022/04/28 13:14:27;;;;;;;5.70;5.20;;;22.20;37.60;;;;;;4976873;28;20827;-45
2022/04/28 13:16:54;;;;;;;4.13;3.73;;;22.30;39.20;;;;;;4982727;28;20485;-44
2022/04/28 13:19:22;;;;;;;4.60;4.20;;;22.40;39.20;;;;;;4982356;28;20500;-45
2022/04/28 13:21:49;;;;;;;5.93;5.20;;;22.50;40.90;;;;;;4958095;28;20986;-45
2022/04/28 13:24:17;;;;;;;5.10;4.60;;;22.50;40.20;;;;;;4982448;28;20525;-45
2022/04/28 13:26:44;;;;;;;5.60;4.60;;;22.20;38.50;;;;;;4959629;28;20514;-44
2022/04/28 13:29:12;;;;;;;5.07;4.60;;;22.10;39.40;;;;;;4974799;28;20972;-44
2022/04/28 13:31:40;;;;;;;4.33;3.93;;;21.90;40.50;;;;;;4976836;28;20546;-44